Time;durP1;ratioP1;P1;durP2;ratioP2;P2;SDS_P1;SDS_P2;PMS_P1;PMS_P2;Temp;Humidity;BMP_temperature;BMP_pressure;BME280_temperature;BME280_humidity;BME280_pressure;Samples;Min_cycle;Max_cycle;Signal;HPM_P1;HPM_P2
2021/01/14 00:02:03;;;;;;;10.40;1.30;;;2.00;82.90;;;;;;5110684;28;20907;-87
2021/01/14 00:04:29;;;;;;;17.90;1.90;;;2.00;82.40;;;;;;5090309;28;20370;-86
2021/01/14 00:06:56;;;;;;;6.13;1.55;;;1.90;81.90;;;;;;5090204;28;20404;-87
2021/01/14 00:09:22;;;;;;;12.60;2.10;;;1.90;81.50;;;;;;5089842;28;20659;-86
2021/01/14 00:11:48;;;;;;;11.37;2.50;;;1.90;82.40;;;;;;5091586;28;20409;-87
2021/01/14 00:14:14;;;;;;;13.25;2.17;;;1.90;81.30;;;;;;5090205;28;20425;-87
2021/01/14 00:16:40;;;;;;;10.50;1.70;;;1.80;81.90;;;;;;5089533;28;20475;-86
2021/01/14 00:19:06;;;;;;;13.93;3.15;;;1.80;82.00;;;;;;5091420;28;20378;-86
2021/01/14 00:21:39;;;;;;;10.20;1.63;;;1.80;81.30;;;;;;5089944;28;20387;-87
2021/01/14 00:24:05;;;;;;;11.20;1.63;;;1.80;81.20;;;;;;5098380;28;20377;-86
2021/01/14 00:26:31;;;;;;;8.15;1.52;;;1.90;81.10;;;;;;5109974;28;20902;-86
2021/01/14 00:28:57;;;;;;;10.68;2.33;;;1.80;81.10;;;;;;5109988;28;20384;-86
2021/01/14 00:31:23;;;;;;;10.13;1.47;;;1.80;80.80;;;;;;5109990;28;20400;-86
2021/01/14 00:33:48;;;;;;;13.73;2.17;;;1.80;81.00;;;;;;5111684;28;20393;-86
2021/01/14 00:36:14;;;;;;;4.03;1.60;;;1.70;81.60;;;;;;5111631;28;20395;-86
2021/01/14 00:38:41;;;;;;;16.40;2.20;;;1.50;82.60;;;;;;5111069;28;20376;-87
2021/01/14 00:41:07;;;;;;;10.52;1.65;;;1.50;82.60;;;;;;5111388;28;20411;-86
2021/01/14 00:43:32;;;;;;;11.60;2.20;;;1.40;83.80;;;;;;5110220;28;20588;-87
2021/01/14 00:45:58;;;;;;;11.20;1.73;;;1.40;83.00;;;;;;5109823;28;20396;-87
2021/01/14 00:48:23;;;;;;;12.77;1.77;;;1.30;82.80;;;;;;5111273;28;20373;-87
2021/01/14 00:50:49;;;;;;;8.20;1.53;;;1.30;82.90;;;;;;5109719;28;20386;-87
2021/01/14 00:53:15;;;;;;;10.65;1.77;;;1.10;83.50;;;;;;5111209;28;20372;-87
2021/01/14 00:55:41;;;;;;;8.75;1.50;;;1.20;83.70;;;;;;5111113;28;20916;-87
2021/01/14 00:58:06;;;;;;;10.33;1.30;;;1.10;83.60;;;;;;5110774;28;20368;-87
2021/01/14 01:00:32;;;;;;;12.30;1.53;;;1.10;83.50;;;;;;5109781;28;20413;-87
2021/01/14 01:02:58;;;;;;;11.63;1.70;;;1.10;83.10;;;;;;5110856;28;20856;-87
2021/01/14 01:05:23;;;;;;;11.00;1.73;;;1.00;84.20;;;;;;5111380;28;20376;-87
2021/01/14 01:07:57;;;;;;;9.00;1.20;;;1.00;83.60;;;;;;5110460;28;20376;-87
2021/01/14 01:10:23;;;;;;;11.55;1.50;;;1.00;83.40;;;;;;5111029;28;20377;-87
2021/01/14 01:12:58;;;;;;;11.82;1.92;;;0.90;84.40;;;;;;5109468;28;20399;-87
2021/01/14 01:15:25;;;;;;;13.20;1.70;;;1.00;83.80;;;;;;5110948;28;20406;-87
2021/01/14 01:17:50;;;;;;;15.88;2.13;;;1.00;83.40;;;;;;5110539;28;20497;-87
2021/01/14 01:20:16;;;;;;;10.73;1.40;;;1.10;82.30;;;;;;5110782;28;20463;-86
2021/01/14 01:22:42;;;;;;;7.63;1.57;;;1.10;82.90;;;;;;5111148;28;20909;-87
2021/01/14 01:25:08;;;;;;;10.25;1.90;;;1.00;82.90;;;;;;5109714;28;20483;-87
2021/01/14 01:27:34;;;;;;;10.80;1.77;;;1.00;82.20;;;;;;5113454;28;20372;-86
2021/01/14 01:30:00;;;;;;;11.77;1.50;;;1.00;82.20;;;;;;5114976;28;20387;-87
2021/01/14 01:32:25;;;;;;;8.17;1.43;;;1.10;81.80;;;;;;5115152;28;20404;-86
2021/01/14 01:34:51;;;;;;;9.03;1.57;;;1.00;82.10;;;;;;5113770;28;20381;-86
2021/01/14 01:37:17;;;;;;;10.05;1.65;;;1.10;82.00;;;;;;5114772;28;20741;-86
2021/01/14 01:39:42;;;;;;;9.27;1.60;;;1.10;81.70;;;;;;5114701;28;20372;-87
2021/01/14 01:42:08;;;;;;;6.82;1.33;;;1.00;82.40;;;;;;5114896;28;20383;-86
2021/01/14 01:44:34;;;;;;;14.55;1.55;;;1.00;82.10;;;;;;5113572;28;20381;-88
2021/01/14 01:47:07;;;;;;;8.07;1.40;;;1.00;82.80;;;;;;5113017;28;20377;-87
2021/01/14 01:49:37;;;;;;;8.15;2.10;;;1.00;82.20;;;;;;5115045;28;20392;-86
2021/01/14 01:52:03;;;;;;;9.05;1.50;;;1.10;81.30;;;;;;5113779;28;20740;-86
2021/01/14 01:54:32;;;;;;;4.75;1.08;;;1.10;81.20;;;;;;5114339;28;20848;-87
2021/01/14 01:56:59;;;;;;;6.68;1.70;;;0.90;81.90;;;;;;5114103;28;20558;-87
2021/01/14 01:59:25;;;;;;;7.93;1.58;;;1.10;81.90;;;;;;5113003;28;20412;-87
2021/01/14 02:01:51;;;;;;;4.50;1.17;;;1.00;81.90;;;;;;5114191;28;20412;-86
2021/01/14 02:04:18;;;;;;;7.75;1.30;;;1.10;80.80;;;;;;5112549;28;20460;-87
2021/01/14 02:06:57;;;;;;;12.67;1.40;;;1.00;82.30;;;;;;5112370;28;20380;-87
2021/01/14 02:09:24;;;;;;;14.70;1.52;;;0.90;83.00;;;;;;5114408;28;20381;-87
2021/01/14 02:12:03;;;;;;;9.60;1.27;;;0.90;82.00;;;;;;5114198;28;20445;-87
2021/01/14 02:14:29;;;;;;;11.35;1.83;;;1.10;80.60;;;;;;5112761;28;20388;-86
2021/01/14 02:16:55;;;;;;;4.10;1.13;;;1.00;81.20;;;;;;5112422;28;20380;-86
2021/01/14 02:19:26;;;;;;;9.18;1.40;;;1.10;81.70;;;;;;5112489;28;20841;-86
2021/01/14 02:21:57;;;;;;;8.38;1.60;;;1.10;81.10;;;;;;5112696;28;20452;-86
2021/01/14 02:24:32;;;;;;;9.32;1.25;;;1.00;81.40;;;;;;5113050;28;20431;-86
2021/01/14 02:26:58;;;;;;;9.73;1.63;;;1.10;81.20;;;;;;5113538;28;20861;-86
2021/01/14 02:29:24;;;;;;;5.57;1.20;;;1.10;80.50;;;;;;5113679;28;20381;-86
2021/01/14 02:31:50;;;;;;;12.30;1.70;;;1.10;81.00;;;;;;5113657;28;20839;-86
2021/01/14 02:34:15;;;;;;;17.00;1.60;;;1.10;80.90;;;;;;5112241;28;20745;-86
2021/01/14 02:36:41;;;;;;;10.93;1.43;;;1.00;81.30;;;;;;5113335;28;20381;-86
2021/01/14 02:39:07;;;;;;;9.05;1.40;;;1.10;80.30;;;;;;5112853;28;20376;-86
2021/01/14 02:41:32;;;;;;;9.82;1.30;;;1.10;80.60;;;;;;5113498;28;20901;-86
2021/01/14 02:43:58;;;;;;;13.52;2.33;;;1.10;80.70;;;;;;5113393;28;20721;-86
2021/01/14 02:46:24;;;;;;;8.63;1.77;;;1.00;80.80;;;;;;5112384;28;20729;-86
2021/01/14 02:49:09;;;;;;;7.68;1.55;;;1.10;80.80;;;;;;5113025;28;20396;-86
2021/01/14 02:51:43;;;;;;;7.70;1.30;;;1.10;80.80;;;;;;5111645;28;20911;-86
2021/01/14 02:54:09;;;;;;;13.10;1.23;;;1.00;81.20;;;;;;5113762;28;20729;-86
2021/01/14 02:56:37;;;;;;;10.05;1.50;;;0.90;81.90;;;;;;5112455;28;20396;-86
2021/01/14 02:59:04;;;;;;;5.78;1.52;;;0.90;82.50;;;;;;5112015;28;20408;-86
2021/01/14 03:01:29;;;;;;;9.50;1.42;;;0.90;82.70;;;;;;5111597;28;20373;-86
2021/01/14 03:03:55;;;;;;;12.00;1.90;;;0.90;83.30;;;;;;5111916;28;20441;-86
2021/01/14 03:06:21;;;;;;;10.43;1.67;;;0.90;82.30;;;;;;5112891;28;20376;-86
2021/01/14 03:08:46;;;;;;;11.43;1.85;;;0.90;82.60;;;;;;5112437;28;20737;-86
2021/01/14 03:11:13;;;;;;;4.72;1.45;;;0.80;82.90;;;;;;5111501;28;20404;-86
2021/01/14 03:13:38;;;;;;;6.70;1.30;;;0.80;82.90;;;;;;5112712;28;20415;-86
2021/01/14 03:16:06;;;;;;;8.40;1.63;;;0.70;83.60;;;;;;5111469;28;20404;-85
2021/01/14 03:18:32;;;;;;;9.02;1.50;;;0.80;83.00;;;;;;5111011;28;20384;-86
2021/01/14 03:20:57;;;;;;;7.30;1.30;;;0.70;83.00;;;;;;5112836;28;20875;-85
2021/01/14 03:23:23;;;;;;;10.00;1.43;;;0.70;83.90;;;;;;5112605;28;20405;-85
2021/01/14 03:25:48;;;;;;;10.50;1.30;;;0.70;84.00;;;;;;5112921;28;20475;-85
2021/01/14 03:28:14;;;;;;;9.60;1.13;;;0.60;84.20;;;;;;5112169;28;20398;-85
2021/01/14 03:30:40;;;;;;;7.20;1.03;;;0.70;83.10;;;;;;5112732;28;20873;-87
2021/01/14 03:33:05;;;;;;;8.80;1.40;;;0.70;83.90;;;;;;5112371;28;20411;-85
2021/01/14 03:35:31;;;;;;;9.60;1.80;;;0.60;83.50;;;;;;5111311;28;20392;-85
2021/01/14 03:37:56;;;;;;;11.73;2.37;;;0.60;83.80;;;;;;5111580;28;20821;-86
2021/01/14 03:40:22;;;;;;;9.65;1.77;;;0.60;84.50;;;;;;5112605;28;20379;-87
2021/01/14 03:42:48;;;;;;;11.15;1.50;;;0.60;84.50;;;;;;5112644;28;20373;-86
2021/01/14 03:45:13;;;;;;;9.35;1.60;;;0.60;84.40;;;;;;5111229;28;20380;-85
2021/01/14 03:47:39;;;;;;;10.88;2.08;;;0.60;85.10;;;;;;5111576;28;20369;-85
2021/01/14 03:50:06;;;;;;;9.33;2.10;;;0.60;84.30;;;;;;5109719;28;20419;-86
2021/01/14 03:52:32;;;;;;;9.93;1.70;;;0.70;84.50;;;;;;5112586;28;20895;-86
2021/01/14 03:54:58;;;;;;;13.17;1.47;;;0.70;83.60;;;;;;5112074;28;20385;-86
2021/01/14 03:57:23;;;;;;;8.77;1.43;;;0.60;84.90;;;;;;5112132;28;20393;-86
2021/01/14 03:59:49;;;;;;;8.93;1.30;;;0.60;85.10;;;;;;5111996;28;20377;-86
2021/01/14 04:02:14;;;;;;;10.60;1.50;;;0.60;85.90;;;;;;5110936;28;20392;-86
2021/01/14 04:04:41;;;;;;;7.77;1.40;;;0.50;85.50;;;;;;5111948;28;20481;-86
2021/01/14 04:07:14;;;;;;;10.70;1.52;;;0.60;85.50;;;;;;5110384;28;20745;-86
2021/01/14 04:09:41;;;;;;;9.00;1.20;;;0.50;86.80;;;;;;5111935;28;20487;-86
2021/01/14 04:12:07;;;;;;;7.90;1.33;;;0.40;86.50;;;;;;5111860;28;20408;-85
2021/01/14 04:14:32;;;;;;;5.03;1.20;;;0.40;86.60;;;;;;5112249;28;20394;-86
2021/01/14 04:16:59;;;;;;;6.60;1.67;;;0.40;87.50;;;;;;5111563;28;20380;-85
2021/01/14 04:19:25;;;;;;;14.27;1.92;;;0.40;87.20;;;;;;5110992;28;21007;-85
2021/01/14 04:21:50;;;;;;;13.70;2.10;;;0.40;87.80;;;;;;5111788;28;20384;-85
2021/01/14 04:24:16;;;;;;;5.80;1.40;;;0.20;87.70;;;;;;5110456;28;20866;-86
2021/01/14 04:26:42;;;;;;;9.75;1.30;;;0.20;88.00;;;;;;5110990;28;20733;-86
2021/01/14 04:29:09;;;;;;;7.83;1.50;;;0.30;88.20;;;;;;5111637;28;20460;-86
2021/01/14 04:31:35;;;;;;;7.05;1.63;;;0.30;87.70;;;;;;5111267;28;20404;-85
2021/01/14 04:34:03;;;;;;;5.50;1.63;;;0.40;87.70;;;;;;5111371;28;20368;-85
2021/01/14 04:36:28;;;;;;;7.32;1.42;;;0.30;87.70;;;;;;5109697;28;20861;-88
2021/01/14 04:38:54;;;;;;;9.40;1.73;;;0.30;88.40;;;;;;5109829;28;20376;-86
2021/01/14 04:41:20;;;;;;;8.98;1.40;;;0.40;86.90;;;;;;5111169;28;20376;-86
2021/01/14 04:43:48;;;;;;;4.13;1.42;;;0.40;87.30;;;;;;5110074;28;20381;-87
2021/01/14 04:46:15;;;;;;;9.63;1.90;;;0.30;87.80;;;;;;5109647;28;20384;-86
2021/01/14 04:48:42;;;;;;;15.02;2.40;;;0.30;87.30;;;;;;5110773;28;20384;-86
2021/01/14 04:51:13;;;;;;;18.70;2.25;;;0.30;87.30;;;;;;5110396;28;20464;-86
2021/01/14 04:53:40;;;;;;;13.27;2.08;;;0.30;87.60;;;;;;5109896;28;20729;-86
2021/01/14 04:56:08;;;;;;;8.20;1.73;;;0.30;86.80;;;;;;5109682;28;20427;-85
2021/01/14 04:58:36;;;;;;;7.43;1.92;;;0.40;87.70;;;;;;5110222;28;20771;-85
2021/01/14 05:01:17;;;;;;;13.05;1.98;;;0.30;87.40;;;;;;5109557;28;20537;-85
2021/01/14 05:03:46;;;;;;;11.85;1.90;;;0.30;87.80;;;;;;5109697;28;20395;-86
2021/01/14 05:06:19;;;;;;;13.82;2.08;;;0.30;88.00;;;;;;5111254;28;20376;-87
2021/01/14 05:09:00;;;;;;;10.35;1.85;;;0.40;87.00;;;;;;5109572;28;20857;-86
2021/01/14 05:11:28;;;;;;;10.73;2.13;;;0.30;88.10;;;;;;5111052;28;20762;-86
2021/01/14 05:13:54;;;;;;;4.07;1.52;;;0.30;87.00;;;;;;5104437;28;20391;-86
2021/01/14 05:16:19;;;;;;;10.40;2.05;;;0.40;86.70;;;;;;5090316;28;20370;-86
2021/01/14 05:18:45;;;;;;;6.22;1.45;;;0.40;86.60;;;;;;5090226;28;20416;-86
2021/01/14 05:21:10;;;;;;;7.73;1.93;;;0.40;86.20;;;;;;5090476;28;20413;-86
2021/01/14 05:23:36;;;;;;;16.53;2.27;;;0.40;86.60;;;;;;5089283;28;20394;-87
2021/01/14 05:26:02;;;;;;;7.25;2.38;;;0.50;86.00;;;;;;5090184;28;20472;-87
2021/01/14 05:28:29;;;;;;;11.63;2.10;;;0.50;85.50;;;;;;5105720;28;20492;-86
2021/01/14 05:31:16;;;;;;;11.40;1.87;;;0.40;86.10;;;;;;5090213;28;20384;-86
2021/01/14 05:33:43;;;;;;;13.60;2.05;;;0.50;86.20;;;;;;5090482;28;20472;-86
2021/01/14 05:36:09;;;;;;;5.63;1.63;;;0.50;85.40;;;;;;5106045;28;20413;-86
2021/01/14 05:38:34;;;;;;;7.55;1.45;;;0.50;85.30;;;;;;5105506;28;20878;-86
2021/01/14 05:41:18;;;;;;;9.57;2.00;;;0.60;85.20;;;;;;5090545;28;20380;-86
2021/01/14 05:43:57;;;;;;;8.70;2.50;;;0.40;85.40;;;;;;5090206;28;20382;-85
2021/01/14 05:46:28;;;;;;;7.95;1.73;;;0.50;85.70;;;;;;5090279;28;20382;-86
2021/01/14 05:48:56;;;;;;;11.80;2.00;;;0.50;85.90;;;;;;5088660;28;20723;-85
2021/01/14 05:51:26;;;;;;;11.93;3.63;;;0.40;86.30;;;;;;5089162;28;20410;-86
2021/01/14 05:54:09;;;;;;;12.68;2.20;;;0.40;87.50;;;;;;5090457;28;20404;-86
2021/01/14 05:56:50;;;;;;;10.95;2.05;;;0.30;87.40;;;;;;5089714;28;20398;-89
2021/01/14 05:59:15;;;;;;;9.45;1.83;;;0.30;87.20;;;;;;5090322;28;20374;-87
2021/01/14 06:01:58;;;;;;;10.03;2.07;;;0.40;87.10;;;;;;5089881;28;20542;-86
2021/01/14 06:04:26;;;;;;;8.67;1.70;;;0.30;87.50;;;;;;5088987;28;20386;-87
2021/01/14 06:06:53;;;;;;;12.05;1.85;;;0.30;87.00;;;;;;5096852;28;20383;-86
2021/01/14 06:09:21;;;;;;;13.60;1.67;;;0.30;88.20;;;;;;5110487;28;20406;-86
2021/01/14 06:11:48;;;;;;;9.80;2.80;;;0.20;88.40;;;;;;5110465;28;20448;-86
2021/01/14 06:14:30;;;;;;;7.32;1.73;;;0.30;86.90;;;;;;5110774;28;20398;-87
2021/01/14 06:17:04;;;;;;;6.85;1.60;;;0.20;88.30;;;;;;5095696;28;20388;-86
2021/01/14 06:19:30;;;;;;;6.35;1.48;;;0.20;87.80;;;;;;5092224;28;20394;-87
2021/01/14 06:21:57;;;;;;;13.32;1.65;;;0.30;86.90;;;;;;5092495;28;20936;-86
2021/01/14 06:24:30;;;;;;;22.57;2.10;;;0.30;86.90;;;;;;5092094;28;20941;-85
2021/01/14 06:26:58;;;;;;;10.88;1.70;;;0.30;86.40;;;;;;5091917;28;20390;-87
2021/01/14 06:29:28;;;;;;;6.38;1.55;;;0.30;86.50;;;;;;5093339;28;20501;-87
2021/01/14 06:32:13;;;;;;;8.27;1.60;;;0.30;86.60;;;;;;5092912;28;20427;-87
2021/01/14 06:34:41;;;;;;;12.83;1.90;;;0.30;86.80;;;;;;5092188;28;20497;-87
2021/01/14 06:37:12;;;;;;;7.87;2.23;;;0.30;86.40;;;;;;5091487;28;20431;-87
2021/01/14 06:39:53;;;;;;;11.47;1.50;;;0.30;86.30;;;;;;5093375;28;20382;-87
2021/01/14 06:42:36;;;;;;;6.40;2.10;;;0.30;86.40;;;;;;5091433;28;20445;-86
2021/01/14 06:45:07;;;;;;;13.82;2.20;;;0.30;86.50;;;;;;5091961;28;20390;-87
2021/01/14 06:47:38;;;;;;;11.90;2.10;;;0.20;86.60;;;;;;5091452;28;20398;-86
2021/01/14 06:50:16;;;;;;;16.15;2.10;;;0.10;87.20;;;;;;5091747;28;20513;-87
2021/01/14 06:52:52;;;;;;;12.60;1.73;;;0.20;86.30;;;;;;5091523;28;20539;-87
2021/01/14 06:55:23;;;;;;;7.65;1.95;;;0.10;86.60;;;;;;5092681;28;20467;-85
2021/01/14 06:58:19;;;;;;;11.30;2.30;;;0.20;86.60;;;;;;5092615;28;20447;-87
2021/01/14 07:00:48;;;;;;;17.35;2.63;;;0.20;87.40;;;;;;5079695;28;20482;-86
2021/01/14 07:03:14;;;;;;;6.83;1.80;;;0.10;87.00;;;;;;5106200;28;20377;-86
2021/01/14 07:05:54;;;;;;;9.48;1.80;;;0.10;87.60;;;;;;5113077;28;20368;-85
2021/01/14 07:08:32;;;;;;;6.03;1.40;;;0.00;87.60;;;;;;5112491;28;20416;-87
2021/01/14 07:11:00;;;;;;;11.00;2.30;;;0.10;87.20;;;;;;5113052;28;20372;-86
2021/01/14 07:13:39;;;;;;;11.50;2.20;;;0.10;86.90;;;;;;5112846;28;20976;-86
2021/01/14 07:16:05;;;;;;;9.07;1.92;;;0.20;86.70;;;;;;5112058;28;20499;-86
2021/01/14 07:18:33;;;;;;;7.93;1.90;;;0.10;87.30;;;;;;5110853;28;20391;-87
2021/01/14 07:21:34;;;;;;;8.60;1.77;;;0.10;86.90;;;;;;5112832;28;20426;-87
2021/01/14 07:24:27;;;;;;;12.27;2.38;;;0.00;87.30;;;;;;5112644;28;20388;-86
2021/01/14 07:26:56;;;;;;;13.93;3.17;;;0.10;87.10;;;;;;5107728;28;20392;-86
2021/01/14 07:29:24;;;;;;;11.73;1.80;;;0.20;86.30;;;;;;5112875;28;20385;-83
2021/01/14 07:31:51;;;;;;;11.00;1.85;;;0.20;86.70;;;;;;5112287;28;20403;-86
2021/01/14 07:34:39;;;;;;;7.60;1.85;;;0.20;86.50;;;;;;5112604;28;20490;-86
2021/01/14 07:37:18;;;;;;;7.50;2.45;;;0.20;85.70;;;;;;5112308;28;20865;-89
2021/01/14 07:39:54;;;;;;;10.90;3.65;;;0.30;85.90;;;;;;5113864;28;20376;-86
2021/01/14 07:42:28;;;;;;;12.47;3.10;;;0.30;86.70;;;;;;5114062;28;20380;-80
2021/01/14 07:44:56;;;;;;;10.38;1.80;;;0.30;86.80;;;;;;5113727;28;20438;-81
2021/01/14 07:47:40;;;;;;;6.80;2.03;;;0.30;86.50;;;;;;5109495;28;20389;-81
2021/01/14 07:50:26;;;;;;;10.48;2.00;;;0.30;86.20;;;;;;5108248;28;20924;-82
2021/01/14 07:52:57;;;;;;;12.50;2.40;;;0.30;86.30;;;;;;5110134;28;20490;-83
2021/01/14 07:55:37;;;;;;;10.00;1.98;;;0.40;85.40;;;;;;5109366;28;20423;-83
2021/01/14 07:58:19;;;;;;;14.43;2.20;;;0.30;85.70;;;;;;5109814;28;20865;-81
2021/01/14 08:01:00;;;;;;;9.50;1.80;;;0.30;86.10;;;;;;5110651;28;20389;-82
2021/01/14 08:03:42;;;;;;;7.63;2.40;;;0.30;85.90;;;;;;5111839;28;20376;-82
2021/01/14 08:06:18;;;;;;;23.00;4.07;;;0.30;85.70;;;;;;5110530;28;20433;-83
2021/01/14 08:09:08;;;;;;;9.30;2.45;;;0.30;85.90;;;;;;5109408;28;20396;-83
2021/01/14 08:11:42;;;;;;;13.48;2.60;;;0.30;86.30;;;;;;5103124;28;20404;-83
2021/01/14 08:14:20;;;;;;;9.93;2.20;;;0.30;85.70;;;;;;5111913;28;20388;-83
2021/01/14 08:16:46;;;;;;;7.38;2.30;;;0.30;85.70;;;;;;5111161;28;20393;-83
2021/01/14 08:19:16;;;;;;;13.60;2.70;;;0.30;86.00;;;;;;5110340;28;20718;-82
2021/01/14 08:21:43;;;;;;;11.20;2.30;;;0.30;86.00;;;;;;5109621;28;20384;-82
2021/01/14 08:24:09;;;;;;;10.93;4.93;;;0.30;86.30;;;;;;5110658;28;20388;-84
2021/01/14 08:26:54;;;;;;;12.13;4.68;;;0.30;83.70;;;;;;5109754;28;20417;-85
2021/01/14 08:29:31;;;;;;;12.07;6.07;;;0.30;83.20;;;;;;5110133;28;20460;-82
2021/01/14 08:31:57;;;;;;;14.35;8.07;;;0.20;83.90;;;;;;5110176;28;20429;-83
2021/01/14 08:34:25;;;;;;;22.02;8.80;;;0.20;83.70;;;;;;5109982;28;20380;-83
2021/01/14 08:36:54;;;;;;;12.88;6.80;;;0.30;83.30;;;;;;5109107;28;20380;-85
2021/01/14 08:39:25;;;;;;;22.17;9.63;;;0.20;83.20;;;;;;5110116;28;20530;-83
2021/01/14 08:41:52;;;;;;;11.45;5.95;;;0.30;83.70;;;;;;5111667;28;20380;-84
2021/01/14 08:44:19;;;;;;;11.65;6.20;;;0.20;83.00;;;;;;5109768;28;20392;-84
2021/01/14 08:46:51;;;;;;;17.05;6.88;;;0.20;83.10;;;;;;5110906;28;20372;-85
2021/01/14 08:49:18;;;;;;;12.93;7.13;;;0.30;83.80;;;;;;5111406;28;20451;-83
2021/01/14 08:51:44;;;;;;;13.27;7.00;;;0.30;84.10;;;;;;5109552;28;20483;-82
2021/01/14 08:54:10;;;;;;;14.80;7.05;;;0.40;84.50;;;;;;5110889;28;20409;-83
2021/01/14 08:56:37;;;;;;;12.07;6.18;;;0.40;84.50;;;;;;5108674;28;20400;-83
2021/01/14 08:59:10;;;;;;;14.95;6.30;;;0.40;83.70;;;;;;5111208;28;20388;-83
2021/01/14 09:01:36;;;;;;;12.90;6.00;;;0.40;83.90;;;;;;5109690;28;20437;-82
2021/01/14 09:04:04;;;;;;;17.00;7.07;;;0.40;82.50;;;;;;5111285;28;20463;-82
2021/01/14 09:06:34;;;;;;;21.30;7.93;;;0.40;83.20;;;;;;5110810;28;20775;-83
2021/01/14 09:09:02;;;;;;;12.52;6.43;;;0.40;82.60;;;;;;5111030;28;20376;-83
2021/01/14 09:11:29;;;;;;;9.75;6.28;;;0.50;83.50;;;;;;5109281;28;20968;-82
2021/01/14 09:14:15;;;;;;;12.35;6.97;;;0.40;82.10;;;;;;5110802;28;20665;-84
2021/01/14 09:16:48;;;;;;;13.60;6.85;;;0.40;82.50;;;;;;5108927;28;20420;-84
2021/01/14 09:19:21;;;;;;;13.15;6.50;;;0.50;82.80;;;;;;5109334;28;20953;-81
2021/01/14 09:21:47;;;;;;;11.93;6.23;;;0.60;81.60;;;;;;5110933;28;20874;-81
2021/01/14 09:24:14;;;;;;;10.00;5.90;;;0.50;82.50;;;;;;5108988;28;20391;-81
2021/01/14 09:26:41;;;;;;;10.55;6.35;;;0.60;82.50;;;;;;5108992;28;20384;-81
2021/01/14 09:29:11;;;;;;;11.30;5.90;;;0.60;82.90;;;;;;5109064;28;20538;-81
2021/01/14 09:31:37;;;;;;;11.32;5.85;;;0.70;82.70;;;;;;5109381;28;20408;-82
2021/01/14 09:34:03;;;;;;;10.43;5.22;;;0.60;81.30;;;;;;5110730;28;20471;-80
2021/01/14 09:36:29;;;;;;;10.82;5.68;;;0.70;81.10;;;;;;5110359;28;20456;-79
2021/01/14 09:38:59;;;;;;;10.15;4.63;;;0.80;81.50;;;;;;5108992;28;20441;-81
2021/01/14 09:41:39;;;;;;;10.70;5.10;;;0.70;81.60;;;;;;5108699;28;20475;-80
2021/01/14 09:44:05;;;;;;;10.38;5.20;;;0.90;81.40;;;;;;5110604;28;20418;-79
2021/01/14 09:46:35;;;;;;;10.70;5.18;;;0.80;81.60;;;;;;5110224;28;20404;-80
2021/01/14 09:49:05;;;;;;;10.30;4.25;;;0.90;82.10;;;;;;5112476;28;20424;-81
2021/01/14 09:51:32;;;;;;;7.72;4.53;;;0.90;81.50;;;;;;5113535;28;20426;-79
2021/01/14 09:53:58;;;;;;;12.75;4.45;;;0.90;81.90;;;;;;5113230;28;20408;-79
2021/01/14 09:56:31;;;;;;;9.80;5.10;;;0.90;82.50;;;;;;5112707;28;20824;-79
2021/01/14 09:59:03;;;;;;;12.45;4.53;;;0.90;81.80;;;;;;5113770;28;20377;-79
2021/01/14 10:01:54;;;;;;;11.95;4.75;;;1.00;81.40;;;;;;5112895;28;20400;-78
2021/01/14 10:04:24;;;;;;;11.13;4.55;;;1.10;80.90;;;;;;5112239;28;20391;-78
2021/01/14 10:07:06;;;;;;;9.47;4.40;;;1.10;80.20;;;;;;5113281;28;20412;-80
2021/01/14 10:09:36;;;;;;;11.77;4.95;;;1.20;79.50;;;;;;5114464;28;20380;-82
2021/01/14 10:12:06;;;;;;;8.63;4.13;;;1.10;79.60;;;;;;5114020;28;20508;-82
2021/01/14 10:14:31;;;;;;;10.88;4.10;;;1.10;79.60;;;;;;5108986;28;20394;-81
2021/01/14 10:17:08;;;;;;;10.07;4.22;;;1.10;80.20;;;;;;5123065;27;20387;-80
2021/01/14 10:19:37;;;;;;;10.05;4.55;;;1.00;80.00;;;;;;5111507;28;20752;-79
2021/01/14 10:22:06;;;;;;;9.60;4.72;;;1.10;81.10;;;;;;5098774;28;20465;-81
2021/01/14 10:24:31;;;;;;;11.00;4.70;;;1.20;80.30;;;;;;5099083;28;20399;-81
2021/01/14 10:27:19;;;;;;;10.88;4.88;;;1.40;79.80;;;;;;5109238;28;20384;-80
2021/01/14 10:29:46;;;;;;;11.15;4.20;;;1.70;80.80;;;;;;5113863;28;20373;-80
2021/01/14 10:32:16;;;;;;;7.57;3.53;;;1.70;79.00;;;;;;5111914;28;20406;-82
2021/01/14 10:34:47;;;;;;;10.88;3.42;;;1.70;79.20;;;;;;5113819;28;20380;-81
2021/01/14 10:37:26;;;;;;;11.13;3.78;;;1.70;79.10;;;;;;5110841;28;20742;-80
2021/01/14 10:39:56;;;;;;;6.57;3.42;;;1.90;79.50;;;;;;5121388;27;20399;-81
2021/01/14 10:42:25;;;;;;;8.18;3.45;;;1.80;78.50;;;;;;5106181;28;20453;-80
2021/01/14 10:44:55;;;;;;;6.55;3.45;;;1.70;78.60;;;;;;5111794;28;20483;-80
2021/01/14 10:47:22;;;;;;;12.38;3.53;;;1.90;79.90;;;;;;5097065;28;20415;-78
2021/01/14 10:49:48;;;;;;;8.70;3.45;;;2.00;79.20;;;;;;5112348;27;20383;-81
2021/01/14 10:52:13;;;;;;;7.70;3.30;;;2.10;78.90;;;;;;5145947;27;20404;-80
2021/01/14 10:54:39;;;;;;;7.13;3.20;;;2.00;78.80;;;;;;5112316;28;20540;-81
2021/01/14 10:57:05;;;;;;;8.50;3.13;;;2.00;78.90;;;;;;5110952;28;20392;-81
2021/01/14 10:59:31;;;;;;;9.65;2.92;;;2.10;78.60;;;;;;5111111;28;20380;-80
2021/01/14 11:02:09;;;;;;;8.60;3.00;;;2.00;78.60;;;;;;5104807;28;20397;-81
2021/01/14 11:04:34;;;;;;;7.55;3.83;;;2.10;79.10;;;;;;5092862;28;20374;-83
2021/01/14 11:07:12;;;;;;;5.77;3.10;;;2.20;79.50;;;;;;5107953;28;20405;-82
2021/01/14 11:09:51;;;;;;;5.93;2.92;;;2.10;78.50;;;;;;5095497;28;20931;-83
2021/01/14 11:12:17;;;;;;;7.88;2.97;;;2.10;78.90;;;;;;5111704;28;20477;-84
2021/01/14 11:14:43;;;;;;;7.60;3.05;;;2.10;77.40;;;;;;5110522;28;20932;-83
2021/01/14 11:17:13;;;;;;;5.43;2.67;;;2.20;79.70;;;;;;5100398;28;20397;-82
2021/01/14 11:19:38;;;;;;;6.43;2.95;;;2.30;79.10;;;;;;5097666;28;20823;-80
2021/01/14 11:22:04;;;;;;;7.75;3.20;;;2.30;78.50;;;;;;5109499;28;20381;-81
2021/01/14 11:24:29;;;;;;;6.68;2.88;;;2.30;78.90;;;;;;5112779;28;20383;-81
2021/01/14 11:26:55;;;;;;;7.03;3.00;;;2.20;79.00;;;;;;5111775;28;20690;-81
2021/01/14 11:29:21;;;;;;;11.60;3.28;;;2.20;79.50;;;;;;5093629;28;20728;-80
2021/01/14 11:31:46;;;;;;;6.38;2.75;;;2.40;79.20;;;;;;5103020;28;20402;-81
2021/01/14 11:34:12;;;;;;;9.80;3.10;;;2.40;78.30;;;;;;5090523;28;20424;-82
2021/01/14 11:36:38;;;;;;;5.87;3.10;;;2.40;78.00;;;;;;5092041;28;20385;-81
2021/01/14 11:39:04;;;;;;;6.80;3.20;;;2.30;77.90;;;;;;5092170;28;20743;-81
2021/01/14 11:41:29;;;;;;;9.75;3.53;;;2.40;78.80;;;;;;5110993;28;20392;-80
2021/01/14 11:43:55;;;;;;;8.00;3.60;;;2.30;78.00;;;;;;5111817;28;20384;-81
2021/01/14 11:46:21;;;;;;;8.53;3.87;;;2.40;78.80;;;;;;5110850;28;20392;-81
2021/01/14 11:48:47;;;;;;;9.20;3.60;;;2.30;78.20;;;;;;5144564;27;20733;-81
2021/01/14 11:51:13;;;;;;;9.32;3.05;;;2.20;77.20;;;;;;5100558;28;20434;-80
2021/01/14 11:53:39;;;;;;;9.73;3.00;;;2.40;79.30;;;;;;5090255;28;20477;-81
2021/01/14 11:56:05;;;;;;;7.90;2.97;;;2.40;78.30;;;;;;5110252;28;20392;-81
2021/01/14 11:58:31;;;;;;;4.95;2.80;;;2.40;78.30;;;;;;5090924;28;20924;-81
2021/01/14 12:00:57;;;;;;;6.80;3.38;;;2.20;77.90;;;;;;5091261;28;20378;-82
2021/01/14 12:03:22;;;;;;;7.23;3.07;;;2.20;78.50;;;;;;5090119;28;20390;-81
2021/01/14 12:05:48;;;;;;;7.53;2.83;;;2.20;78.50;;;;;;5090330;28;20386;-82
2021/01/14 12:08:13;;;;;;;6.10;2.73;;;2.30;78.80;;;;;;5089609;28;20470;-81
2021/01/14 12:10:39;;;;;;;5.67;2.37;;;2.40;78.70;;;;;;5109068;28;20372;-82
2021/01/14 12:13:04;;;;;;;7.00;2.47;;;2.40;78.40;;;;;;5111313;28;20895;-81
2021/01/14 12:15:30;;;;;;;19.87;8.47;;;2.30;78.80;;;;;;5111363;28;20771;-82
2021/01/14 12:17:55;;;;;;;12.03;4.73;;;2.40;78.70;;;;;;5111490;28;20380;-81
2021/01/14 12:20:21;;;;;;;6.93;3.10;;;2.40;78.80;;;;;;5109921;28;20382;-82
2021/01/14 12:22:47;;;;;;;7.87;3.13;;;2.40;78.50;;;;;;5107266;28;20378;-82
2021/01/14 12:25:13;;;;;;;3.70;2.60;;;2.30;78.50;;;;;;5089616;28;20910;-83
2021/01/14 12:27:42;;;;;;;5.07;2.45;;;2.20;79.00;;;;;;5090360;28;20722;-82
2021/01/14 12:30:10;;;;;;;6.72;2.58;;;2.20;79.10;;;;;;5089511;28;20480;-81
2021/01/14 12:32:36;;;;;;;7.25;3.20;;;2.10;78.10;;;;;;5090794;28;20434;-81
2021/01/14 12:35:03;;;;;;;7.65;3.40;;;2.00;78.60;;;;;;5091175;28;20388;-81
2021/01/14 12:37:36;;;;;;;5.70;2.97;;;2.00;79.10;;;;;;5088761;28;20378;-81
2021/01/14 12:40:04;;;;;;;6.07;2.57;;;2.00;79.70;;;;;;5089775;28;20389;-82
2021/01/14 12:42:30;;;;;;;5.45;2.83;;;1.90;79.00;;;;;;5089332;28;20833;-81
2021/01/14 12:44:55;;;;;;;7.73;3.47;;;1.90;78.70;;;;;;5106193;28;20392;-82
2021/01/14 12:47:21;;;;;;;7.63;3.13;;;1.80;78.90;;;;;;5110617;28;20744;-81
2021/01/14 12:49:47;;;;;;;8.02;3.55;;;1.80;79.80;;;;;;5109422;28;20453;-81
2021/01/14 12:52:12;;;;;;;8.57;4.20;;;1.90;79.90;;;;;;5109317;28;20749;-80
2021/01/14 12:54:38;;;;;;;9.02;3.85;;;1.90;79.40;;;;;;5109577;28;20814;-81
2021/01/14 12:57:04;;;;;;;8.95;3.50;;;1.80;79.80;;;;;;5110922;28;20388;-82
2021/01/14 12:59:29;;;;;;;13.43;3.67;;;1.90;78.80;;;;;;5109343;28;20384;-81
2021/01/14 13:01:55;;;;;;;9.30;3.57;;;1.80;79.10;;;;;;5109917;28;20801;-82
2021/01/14 13:04:20;;;;;;;13.60;3.80;;;1.80;80.40;;;;;;5105693;28;20409;-81